Billings, MO (65610)

5:45 PM CDT on September 26, 2016 (GMT -0500)
Rose Hill Acres | | Change Station

Elev 1339 ft 37.09 °N, 93.55 °W | Updated 13 seconds ago

Clear
Clear
69.1 °F
Feels Like 69.1 °F
N
4.5
Wind Variable Wind from NNW
Gusts 12.1 mph

Today
High -- | Low -- °F
--% Chance of Precip.
Yesterday
High -- | Low -- °F
Precip. -- in
Pressure 30.14 in
Visibility 10.0 miles
Clouds Clear
Dew Point 44 °F
Humidity 41%
Rainfall 0.06 in
Snow Depth Not available.
7:05 AM 7:04 PM
Waning Crescent, 16% visible
METAR KSGF 262152Z 36011KT 10SM CLR 22/04 A3016 RMK AO2 SLP205 T02220039 $
Pressure 30.14 in
Visibility 10.0 miles
Clouds Clear
Dew Point 44 °F
Humidity 41%
Rainfall 0.06 in
Snow Depth Not available.
7:05 AM 7:04 PM
Waning Crescent, 16% visible
METAR KSGF 262152Z 36011KT 10SM CLR 22/04 A3016 RMK AO2 SLP205 T02220039 $

10-Day Weather Forecast

Almanac

Astronomy

Sep. 26, 2016 Rise Set
Actual Time
Civil Twilight
Nautical Twilight
Astronomical Twilight
Moon
Length of Visible Light
Length of Day
Tomorrow will be .
, % of the Moon is Illuminated

Today's Extremes

State Highs State Lows

Community

WunderPhotos

Upload Photos

1,941,981 photos uploaded!

WunderBlog® & News

Nearby

Air Quality

  Air Quality AQ Index Pollutant
Not available.

Snow Depth

Station Depth Elevation

Earthquake Activity

City Distance Mag. Time & Date
Minimum magnitude displayed is 2.5.

Coastal Water Temperatures

Place Temperature

Stations

Nearby Weather Stations

Station Location Temp. Windchill Dew Point Humidity Wind Precip. Elev Updated Type
                   

Watches & Warnings

There are currently no watches in effect.